JA9795 RJTI-RJTI

Flight info

Callsign JA9795
Flight time 0h 5m
Altitude 1500
Route HAKOZAKI KOMATSUGAWA
Aircraft AS50/L-SDGLOV/S

Departure

Time 2026-05-06 16:05
Airport Tokyo Heliport (RJTI)

Arrival

Time 2026-05-06 16:10
Airport Tokyo Heliport (RJTI)
Time Latitude Longitude Altitude Speed Heading
2026-05-06 15:57 35.63616 139.83771 23 ft 0 kts
2026-05-06 16:02 35.63635 139.83781 29 ft 10 kts 81°
2026-05-06 16:02 35.63632 139.83897 34 ft 13 kts 106°
2026-05-06 16:02 35.63594 139.83947 36 ft 9 kts 183°
2026-05-06 16:03 35.63360 139.83903 132 ft 53 kts 211°
2026-05-06 16:03 35.63278 139.83393 350 ft 72 kts 258°
2026-05-06 16:03 35.63234 139.82762 454 ft 77 kts 265°
2026-05-06 16:03 35.63221 139.82052 408 ft 91 kts 270°
2026-05-06 16:04 35.63320 139.81276 508 ft 98 kts 277°
2026-05-06 16:04 35.63568 139.80433 440 ft 110 kts 289°
2026-05-06 16:04 35.63959 139.79599 433 ft 114 kts 303°
2026-05-06 16:04 35.64494 139.78872 595 ft 118 kts 326°
2026-05-06 16:05 35.65260 139.78697 919 ft 109 kts 353°
2026-05-06 16:05 35.66020 139.78548 1023 ft 112 kts 347°
2026-05-06 16:05 35.66819 139.78405 995 ft 121 kts 351°
2026-05-06 16:05 35.67672 139.78376 950 ft 126 kts
2026-05-06 16:06 35.68503 139.78712 1018 ft 124 kts 30°
2026-05-06 16:06 35.69216 139.79300 1103 ft 122 kts 37°
2026-05-06 16:06 35.69877 139.79936 1191 ft 115 kts 41°
2026-05-06 16:06 35.70361 139.80684 1250 ft 113 kts 71°
2026-05-06 16:07 35.70515 139.81605 1335 ft 108 kts 91°
2026-05-06 16:07 35.70496 139.82546 1139 ft 108 kts 103°
2026-05-06 16:07 35.70392 139.83452 915 ft 106 kts 103°
2026-05-06 16:07 35.70280 139.84324 879 ft 98 kts 106°
2026-05-06 16:08 35.70087 139.85131 757 ft 99 kts 125°
2026-05-06 16:08 35.69528 139.85532 630 ft 98 kts 175°
2026-05-06 16:08 35.68862 139.85348 715 ft 95 kts 200°
2026-05-06 16:08 35.68247 139.85044 626 ft 101 kts 206°
2026-05-06 16:09 35.67633 139.84720 639 ft 93 kts 197°
2026-05-06 16:09 35.66994 139.84597 627 ft 91 kts 185°
2026-05-06 16:09 35.66358 139.84518 612 ft 91 kts 187°
2026-05-06 16:09 35.65743 139.84350 597 ft 90 kts 199°
2026-05-06 16:10 35.65172 139.84098 539 ft 85 kts 196°
2026-05-06 16:10 35.64588 139.84003 439 ft 85 kts 184°
2026-05-06 16:10 35.64040 139.83972 277 ft 67 kts 185°
2026-05-06 16:10 35.63686 139.83948 97 ft 35 kts 190°
2026-05-06 16:11 35.63563 139.83910 35 ft 14 kts 262°
2026-05-06 16:11 35.63571 139.83791 33 ft 11 kts 311°
2026-05-06 16:11 35.63587 139.83767 22 ft 0 kts
2026-05-06 16:14 35.63587 139.83772 31 ft 3 kts
2026-05-06 16:15 35.63601 139.83828 28 ft 10 kts 17°
2026-05-06 16:15 35.63626 139.83921 38 ft 19 kts 149°
2026-05-06 16:15 35.63389 139.83904 94 ft 54 kts 212°
2026-05-06 16:15 35.63273 139.83387 284 ft 72 kts 258°
2026-05-06 16:16 35.63234 139.82714 407 ft 82 kts 265°
2026-05-06 16:16 35.63222 139.81989 449 ft 87 kts 266°
2026-05-06 16:16 35.63333 139.81230 425 ft 97 kts 282°
2026-05-06 16:16 35.63548 139.80456 460 ft 99 kts 287°
2026-05-06 16:17 35.63898 139.79710 436 ft 101 kts 304°
2026-05-06 16:17 35.64331 139.79030 549 ft 100 kts 315°
2026-05-06 16:17 35.64955 139.78750 802 ft 98 kts 352°
2026-05-06 16:17 35.65655 139.78615 908 ft 104 kts 347°
2026-05-06 16:18 35.66378 139.78423 951 ft 108 kts 346°
2026-05-06 16:18 35.67142 139.78272 895 ft 114 kts 353°
2026-05-06 16:18 35.67930 139.78298 883 ft 115 kts 11°
2026-05-06 16:18 35.68624 139.78745 925 ft 114 kts 39°
2026-05-06 16:19 35.69243 139.79342 1076 ft 110 kts 43°
2026-05-06 16:19 35.69829 139.79965 1180 ft 112 kts 42°
2026-05-06 16:19 35.70360 139.80670 1224 ft 115 kts 65°
2026-05-06 16:19 35.70558 139.81637 1196 ft 116 kts 85°
2026-05-06 16:20 35.70684 139.82590 1102 ft 110 kts 94°
2026-05-06 16:20 35.70577 139.83483 1103 ft 105 kts 110°
2026-05-06 16:20 35.70363 139.84349 1044 ft 105 kts 114°
2026-05-06 16:20 35.70113 139.85181 810 ft 101 kts 123°
2026-05-06 16:21 35.69566 139.85595 676 ft 95 kts 178°
2026-05-06 16:21 35.68924 139.85397 602 ft 97 kts 201°
2026-05-06 16:21 35.68319 139.85065 644 ft 93 kts 202°
2026-05-06 16:21 35.67722 139.84806 640 ft 86 kts 195°
2026-05-06 16:22 35.67161 139.84648 633 ft 82 kts 190°
2026-05-06 16:22 35.66587 139.84539 618 ft 84 kts 187°
2026-05-06 16:22 35.66008 139.84409 593 ft 85 kts 195°
2026-05-06 16:22 35.65482 139.84194 540 ft 75 kts 198°
2026-05-06 16:23 35.64968 139.84050 524 ft 75 kts 187°
2026-05-06 16:23 35.64465 139.84002 459 ft 70 kts 185°
2026-05-06 16:23 35.64020 139.83979 341 ft 52 kts 189°
2026-05-06 16:23 35.63714 139.83948 142 ft 34 kts 191°
2026-05-06 16:24 35.63589 139.83943 40 ft 13 kts 198°
2026-05-06 16:24 35.63563 139.83854 38 ft 11 kts 271°
2026-05-06 16:24 35.63571 139.83792 40 ft 9 kts 308°
2026-05-06 16:24 35.63588 139.83769 22 ft 0 kts
2026-05-06 16:29 35.63589 139.83771 26 ft 2 kts
2026-05-06 16:29 35.63629 139.83793 29 ft 6 kts 50°
2026-05-06 16:30 35.63636 139.83845 31 ft 7 kts 89°
2026-05-06 16:30 35.63635 139.83869 30 ft 3 kts 99°
2026-05-06 16:30 35.63634 139.83891 32 ft 6 kts 103°
2026-05-06 16:30 35.63617 139.83944 43 ft 8 kts 182°
2026-05-06 16:31 35.63578 139.83947 54 ft 13 kts 192°
2026-05-06 16:31 35.63338 139.83890 107 ft 52 kts 214°
2026-05-06 16:31 35.63261 139.83375 275 ft 70 kts 259°
2026-05-06 16:31 35.63222 139.82721 374 ft 82 kts 262°
2026-05-06 16:32 35.63226 139.81982 436 ft 93 kts 272°
2026-05-06 16:32 35.63338 139.81204 509 ft 93 kts 277°
2026-05-06 16:32 35.63511 139.80410 508 ft 100 kts 286°
2026-05-06 16:32 35.63911 139.79706 489 ft 99 kts 308°
2026-05-06 16:33 35.64337 139.79045 506 ft 97 kts 308°
2026-05-06 16:33 35.64929 139.78752 640 ft 95 kts 354°
2026-05-06 16:33 35.65561 139.78646 784 ft 92 kts 350°
2026-05-06 16:34 35.66996 139.78319 833 ft 117 kts 348°
2026-05-06 16:34 35.67825 139.78293 814 ft 121 kts
2026-05-06 16:34 35.68563 139.78686 923 ft 114 kts 35°
2026-05-06 16:34 35.69180 139.79241 999 ft 110 kts 42°
2026-05-06 16:35 35.69743 139.79841 1177 ft 103 kts 45°
2026-05-06 16:35 35.70255 139.80468 1183 ft 103 kts 62°
2026-05-06 16:35 35.70444 139.81272 1187 ft 93 kts 97°
2026-05-06 16:35 35.70433 139.82032 1188 ft 89 kts 105°
2026-05-06 16:36 35.70387 139.82792 1089 ft 90 kts 108°
2026-05-06 16:36 35.70320 139.83584 888 ft 95 kts 107°
2026-05-06 16:36 35.70233 139.84351 791 ft 90 kts 105°
2026-05-06 16:36 35.70077 139.85080 692 ft 87 kts 122°
2026-05-06 16:37 35.69608 139.85475 644 ft 83 kts 171°
2026-05-06 16:37 35.69024 139.85362 637 ft 86 kts 197°
2026-05-06 16:37 35.68476 139.85101 698 ft 83 kts 202°
2026-05-06 16:37 35.67945 139.84830 657 ft 83 kts 201°
2026-05-06 16:38 35.67404 139.84648 602 ft 82 kts 188°
2026-05-06 16:38 35.66839 139.84559 582 ft 81 kts 187°
2026-05-06 16:38 35.66273 139.84487 589 ft 79 kts 187°
2026-05-06 16:38 35.65754 139.84368 559 ft 73 kts 205°
2026-05-06 16:39 35.65325 139.84126 526 ft 63 kts 206°
2026-05-06 16:39 35.64896 139.84036 479 ft 64 kts 191°
2026-05-06 16:39 35.64493 139.84012 453 ft 44 kts 191°
2026-05-06 16:39 35.64181 139.83973 340 ft 50 kts 189°
2026-05-06 16:40 35.63848 139.83955 207 ft 47 kts 190°
2026-05-06 16:40 35.63622 139.83947 55 ft 15 kts 194°
2026-05-06 16:40 35.63560 139.83894 42 ft 12 kts 267°
2026-05-06 16:40 35.63598 139.83810 34 ft 10 kts 313°
2026-05-06 16:41 35.63615 139.83768 23 ft 1 kts
2026-05-06 16:41 35.63616 139.83768 23 ft 0 kts
2026-05-06 16:48 35.63637 139.83792 26 ft 11 kts 76°
2026-05-06 16:48 35.63631 139.83890 36 ft 14 kts 108°
2026-05-06 16:48 35.63497 139.83937 47 ft 48 kts 187°
2026-05-06 16:49 35.63287 139.83572 229 ft 69 kts 263°
2026-05-06 16:49 35.63236 139.82957 373 ft 77 kts 264°
2026-05-06 16:49 35.63230 139.82256 442 ft 88 kts 267°
2026-05-06 16:49 35.63317 139.81472 498 ft 92 kts 283°
2026-05-06 16:50 35.63445 139.80686 516 ft 97 kts 277°
2026-05-06 16:50 35.63704 139.79916 513 ft 104 kts 311°
2026-05-06 16:50 35.64175 139.79261 549 ft 101 kts 302°
2026-05-06 16:50 35.64733 139.78783 494 ft 104 kts 342°
2026-05-06 16:51 35.65378 139.78656 701 ft 85 kts 354°
2026-05-06 16:51 35.65965 139.78558 813 ft 92 kts 352°
2026-05-06 16:51 35.66653 139.78430 809 ft 106 kts 351°
2026-05-06 16:51 35.67384 139.78346 795 ft 106 kts 359°
2026-05-06 16:52 35.68125 139.78416 724 ft 109 kts 22°
2026-05-06 16:52 35.68741 139.78866 787 ft 96 kts 38°
2026-05-06 16:52 35.69286 139.79349 845 ft 95 kts 43°
2026-05-06 16:52 35.69814 139.79865 949 ft 99 kts 45°
2026-05-06 16:53 35.70332 139.80416 1048 ft 92 kts 58°
2026-05-06 16:53 35.70519 139.81080 1127 ft 82 kts 95°
2026-05-06 16:53 35.70563 139.81780 1150 ft 82 kts 109°
2026-05-06 16:53 35.70475 139.82496 1138 ft 87 kts 115°
2026-05-06 16:54 35.70379 139.83259 1023 ft 95 kts 109°
2026-05-06 16:54 35.70306 139.84100 836 ft 103 kts 103°
2026-05-06 16:54 35.70234 139.84990 726 ft 104 kts 105°
2026-05-06 16:54 35.69778 139.85593 574 ft 102 kts 166°
2026-05-06 16:55 35.69110 139.85460 537 ft 96 kts 201°
2026-05-06 16:55 35.68496 139.85141 545 ft 99 kts 203°
2026-05-06 16:55 35.67849 139.84814 531 ft 102 kts 198°
2026-05-06 16:55 35.67144 139.84627 476 ft 106 kts 188°
2026-05-06 16:56 35.66445 139.84548 531 ft 95 kts 191°
2026-05-06 16:56 35.65839 139.84369 473 ft 85 kts 200°
2026-05-06 16:56 35.65315 139.84148 443 ft 76 kts 203°
2026-05-06 16:56 35.64797 139.84027 368 ft 75 kts 189°
2026-05-06 16:57 35.64304 139.83994 292 ft 66 kts 189°
2026-05-06 16:57 35.63904 139.83964 193 ft 49 kts 191°
2026-05-06 16:57 35.63651 139.83943 70 ft 22 kts 193°
2026-05-06 16:57 35.63565 139.83926 44 ft 8 kts 259°
2026-05-06 16:58 35.63569 139.83854 43 ft 8 kts 310°
2026-05-06 16:58 35.63633 139.83830 41 ft 8 kts 296°
2026-05-06 16:58 35.63624 139.83772 30 ft 4 kts 203°
2026-05-06 16:58 35.63614 139.83768 30 ft 1 kts 346°
2026-05-06 16:59 35.63614 139.83770 26 ft 0 kts